sensor_id;sensor_type;location;lat;lon;timestamp;pressure;altitude;pressure_sealevel;temperature;humidity
65013;BME280;51715;39.432;-77.518;2023-02-23T00:01:20;99207.03;;;12.51;32.88
65013;BME280;51715;39.432;-77.518;2023-02-23T00:03:50;99184.94;;;11.15;35.22
65013;BME280;51715;39.432;-77.518;2023-02-23T00:06:21;99166.88;;;11.76;34.44
65013;BME280;51715;39.432;-77.518;2023-02-23T00:08:51;99183.45;;;11.92;34.13
65013;BME280;51715;39.432;-77.518;2023-02-23T00:11:21;99185.96;;;11.74;33.65
65013;BME280;51715;39.432;-77.518;2023-02-23T00:13:50;99186.04;;;12.30;33.16
65013;BME280;51715;39.432;-77.518;2023-02-23T00:16:21;99178.45;;;11.29;34.92
65013;BME280;51715;39.432;-77.518;2023-02-23T00:18:52;99184.54;;;11.41;34.94
65013;BME280;51715;39.432;-77.518;2023-02-23T00:21:22;99196.26;;;11.85;33.95
65013;BME280;51715;39.432;-77.518;2023-02-23T00:23:54;99204.83;;;12.12;34.47
65013;BME280;51715;39.432;-77.518;2023-02-23T00:26:24;99209.82;;;11.73;34.13
65013;BME280;51715;39.432;-77.518;2023-02-23T00:28:53;99195.00;;;10.80;36.21
65013;BME280;51715;39.432;-77.518;2023-02-23T00:31:23;99160.62;;;11.34;35.41
65013;BME280;51715;39.432;-77.518;2023-02-23T00:33:53;99149.26;;;10.62;36.46
65013;BME280;51715;39.432;-77.518;2023-02-23T00:36:24;99153.45;;;11.51;35.04
65013;BME280;51715;39.432;-77.518;2023-02-23T00:38:53;99143.90;;;10.93;35.78
65013;BME280;51715;39.432;-77.518;2023-02-23T00:41:23;99168.41;;;11.23;35.31
65013;BME280;51715;39.432;-77.518;2023-02-23T00:43:52;99156.73;;;11.81;34.69
65013;BME280;51715;39.432;-77.518;2023-02-23T00:46:23;99138.00;;;11.60;35.56
65013;BME280;51715;39.432;-77.518;2023-02-23T00:48:52;99140.62;;;11.58;35.71
65013;BME280;51715;39.432;-77.518;2023-02-23T00:51:22;99145.32;;;10.91;36.79
65013;BME280;51715;39.432;-77.518;2023-02-23T00:53:54;99139.91;;;11.18;36.21
65013;BME280;51715;39.432;-77.518;2023-02-23T00:56:22;99136.12;;;11.09;37.27
65013;BME280;51715;39.432;-77.518;2023-02-23T00:58:51;99145.42;;;11.15;37.12
65013;BME280;51715;39.432;-77.518;2023-02-23T01:01:19;99154.05;;;11.35;37.23
65013;BME280;51715;39.432;-77.518;2023-02-23T01:03:47;99155.86;;;11.40;37.26
65013;BME280;51715;39.432;-77.518;2023-02-23T01:06:16;99153.43;;;11.08;36.84
65013;BME280;51715;39.432;-77.518;2023-02-23T01:08:47;99158.82;;;11.57;36.27
65013;BME280;51715;39.432;-77.518;2023-02-23T01:11:17;99167.08;;;11.68;36.34
65013;BME280;51715;39.432;-77.518;2023-02-23T01:13:45;99161.94;;;11.51;36.56
65013;BME280;51715;39.432;-77.518;2023-02-23T01:16:17;99170.04;;;11.30;36.94
65013;BME280;51715;39.432;-77.518;2023-02-23T01:18:47;99166.50;;;11.91;36.15
65013;BME280;51715;39.432;-77.518;2023-02-23T01:21:18;99170.36;;;11.90;36.09
65013;BME280;51715;39.432;-77.518;2023-02-23T01:23:47;99173.78;;;11.88;36.54
65013;BME280;51715;39.432;-77.518;2023-02-23T01:26:16;99165.89;;;11.66;36.85
65013;BME280;51715;39.432;-77.518;2023-02-23T01:28:48;99173.12;;;11.51;37.00
65013;BME280;51715;39.432;-77.518;2023-02-23T01:31:18;99168.22;;;11.67;36.77
65013;BME280;51715;39.432;-77.518;2023-02-23T01:33:47;99168.97;;;10.95;38.19
65013;BME280;51715;39.432;-77.518;2023-02-23T01:36:15;99171.65;;;11.03;38.27
65013;BME280;51715;39.432;-77.518;2023-02-23T01:38:44;99171.97;;;11.68;37.46
65013;BME280;51715;39.432;-77.518;2023-02-23T01:41:13;99180.23;;;11.52;37.11
65013;BME280;51715;39.432;-77.518;2023-02-23T01:44:00;99169.27;;;12.04;37.09
65013;BME280;51715;39.432;-77.518;2023-02-23T01:46:32;99166.30;;;11.92;36.92
65013;BME280;51715;39.432;-77.518;2023-02-23T01:49:00;99171.81;;;11.21;38.90
65013;BME280;51715;39.432;-77.518;2023-02-23T01:51:32;99166.50;;;10.99;38.92
65013;BME280;51715;39.432;-77.518;2023-02-23T01:54:06;99176.71;;;11.38;38.56
65013;BME280;51715;39.432;-77.518;2023-02-23T01:56:41;99184.77;;;10.54;39.79
65013;BME280;51715;39.432;-77.518;2023-02-23T01:59:13;99180.42;;;11.09;39.15
65013;BME280;51715;39.432;-77.518;2023-02-23T02:01:42;99184.95;;;10.67;40.62
65013;BME280;51715;39.432;-77.518;2023-02-23T02:04:11;99185.30;;;10.54;40.18
65013;BME280;51715;39.432;-77.518;2023-02-23T02:06:41;99190.45;;;11.10;39.34
65013;BME280;51715;39.432;-77.518;2023-02-23T02:09:14;99186.74;;;11.27;39.12
65013;BME280;51715;39.432;-77.518;2023-02-23T02:11:44;99184.91;;;11.17;39.34
65013;BME280;51715;39.432;-77.518;2023-02-23T02:14:16;99186.41;;;10.33;40.94
65013;BME280;51715;39.432;-77.518;2023-02-23T02:16:56;99175.41;;;10.77;40.34
65013;BME280;51715;39.432;-77.518;2023-02-23T02:19:52;99172.95;;;10.94;39.93
65013;BME280;51715;39.432;-77.518;2023-02-23T02:22:53;99175.98;;;11.24;39.53
65013;BME280;51715;39.432;-77.518;2023-02-23T02:25:48;99167.64;;;10.98;40.13
65013;BME280;51715;39.432;-77.518;2023-02-23T02:28:45;99164.15;;;11.11;39.88
65013;BME280;51715;39.432;-77.518;2023-02-23T02:31:36;99170.51;;;11.20;39.91
65013;BME280;51715;39.432;-77.518;2023-02-23T02:34:24;99169.54;;;11.15;40.43
65013;BME280;51715;39.432;-77.518;2023-02-23T02:37:07;99163.74;;;11.15;40.14
65013;BME280;51715;39.432;-77.518;2023-02-23T02:39:44;99162.35;;;11.02;40.44
65013;BME280;51715;39.432;-77.518;2023-02-23T02:42:21;99156.42;;;10.31;42.32
65013;BME280;51715;39.432;-77.518;2023-02-23T02:44:58;99155.47;;;10.67;42.16
65013;BME280;51715;39.432;-77.518;2023-02-23T02:47:37;99150.86;;;10.58;41.48
65013;BME280;51715;39.432;-77.518;2023-02-23T02:50:08;99140.41;;;11.21;40.51
65013;BME280;51715;39.432;-77.518;2023-02-23T02:52:43;99148.59;;;10.47;42.75
65013;BME280;51715;39.432;-77.518;2023-02-23T02:55:19;99151.49;;;10.43;42.67
65013;BME280;51715;39.432;-77.518;2023-02-23T02:57:50;99150.57;;;10.88;41.08
65013;BME280;51715;39.432;-77.518;2023-02-23T03:00:25;99136.28;;;11.13;40.66
65013;BME280;51715;39.432;-77.518;2023-02-23T03:02:55;99138.58;;;11.14;40.41
65013;BME280;51715;39.432;-77.518;2023-02-23T03:05:26;99139.87;;;10.96;40.86
65013;BME280;51715;39.432;-77.518;2023-02-23T03:08:01;99124.77;;;10.85;41.18
65013;BME280;51715;39.432;-77.518;2023-02-23T03:10:40;99120.47;;;11.08;40.54
65013;BME280;51715;39.432;-77.518;2023-02-23T03:13:20;99123.61;;;10.61;41.37
65013;BME280;51715;39.432;-77.518;2023-02-23T03:15:59;99121.32;;;10.74;41.44
65013;BME280;51715;39.432;-77.518;2023-02-23T03:18:46;99096.04;;;10.92;40.63
65013;BME280;51715;39.432;-77.518;2023-02-23T03:21:21;99087.73;;;11.47;40.01
65013;BME280;51715;39.432;-77.518;2023-02-23T03:23:58;99089.22;;;11.37;40.12
65013;BME280;51715;39.432;-77.518;2023-02-23T03:26:35;99083.18;;;11.22;39.85
65013;BME280;51715;39.432;-77.518;2023-02-23T03:29:08;99062.77;;;10.10;42.27
65013;BME280;51715;39.432;-77.518;2023-02-23T03:31:46;99040.23;;;9.80;42.99
65013;BME280;51715;39.432;-77.518;2023-02-23T03:34:21;99014.03;;;10.51;41.68
65013;BME280;51715;39.432;-77.518;2023-02-23T03:37:00;99014.17;;;10.66;41.64
65013;BME280;51715;39.432;-77.518;2023-02-23T03:39:36;99015.65;;;10.37;42.10
65013;BME280;51715;39.432;-77.518;2023-02-23T03:42:09;99023.66;;;10.79;41.17
65013;BME280;51715;39.432;-77.518;2023-02-23T03:44:41;99019.74;;;10.25;42.48
65013;BME280;51715;39.432;-77.518;2023-02-23T03:47:14;99032.08;;;10.80;41.54
65013;BME280;51715;39.432;-77.518;2023-02-23T03:49:43;99041.75;;;10.97;41.07
65013;BME280;51715;39.432;-77.518;2023-02-23T03:52:15;99052.60;;;11.02;40.67
65013;BME280;51715;39.432;-77.518;2023-02-23T03:54:48;99021.83;;;10.48;41.42
65013;BME280;51715;39.432;-77.518;2023-02-23T03:57:21;99009.60;;;10.50;41.18
65013;BME280;51715;39.432;-77.518;2023-02-23T03:59:57;99000.44;;;10.92;41.84
65013;BME280;51715;39.432;-77.518;2023-02-23T04:02:28;98985.87;;;10.37;42.17
65013;BME280;51715;39.432;-77.518;2023-02-23T04:04:58;98996.53;;;10.71;41.77
65013;BME280;51715;39.432;-77.518;2023-02-23T04:07:30;98984.39;;;10.66;42.77
65013;BME280;51715;39.432;-77.518;2023-02-23T04:09:59;98983.86;;;11.07;41.66
65013;BME280;51715;39.432;-77.518;2023-02-23T04:12:34;98988.81;;;10.72;42.48
65013;BME280;51715;39.432;-77.518;2023-02-23T04:15:10;99003.24;;;11.04;41.47
65013;BME280;51715;39.432;-77.518;2023-02-23T04:17:41;99014.21;;;11.04;41.60
65013;BME280;51715;39.432;-77.518;2023-02-23T04:20:11;99010.09;;;10.47;42.44
65013;BME280;51715;39.432;-77.518;2023-02-23T04:22:41;98999.96;;;10.99;41.51
65013;BME280;51715;39.432;-77.518;2023-02-23T04:25:09;99000.57;;;10.61;41.91
65013;BME280;51715;39.432;-77.518;2023-02-23T04:27:38;98996.37;;;11.15;41.16
65013;BME280;51715;39.432;-77.518;2023-02-23T04:30:08;98998.38;;;10.92;41.39
65013;BME280;51715;39.432;-77.518;2023-02-23T04:32:36;99010.85;;;10.94;41.36
65013;BME280;51715;39.432;-77.518;2023-02-23T04:35:06;99023.43;;;10.70;41.91
65013;BME280;51715;39.432;-77.518;2023-02-23T04:37:34;99040.44;;;11.10;41.27
65013;BME280;51715;39.432;-77.518;2023-02-23T04:40:02;99033.08;;;11.24;41.27
65013;BME280;51715;39.432;-77.518;2023-02-23T04:42:31;99020.35;;;11.58;40.64
65013;BME280;51715;39.432;-77.518;2023-02-23T04:45:00;99022.97;;;11.00;41.62
65013;BME280;51715;39.432;-77.518;2023-02-23T04:47:29;99018.04;;;11.54;40.83
65013;BME280;51715;39.432;-77.518;2023-02-23T04:49:57;99016.29;;;11.49;41.14
65013;BME280;51715;39.432;-77.518;2023-02-23T04:52:26;99014.72;;;11.33;40.89
65013;BME280;51715;39.432;-77.518;2023-02-23T04:54:54;99023.07;;;10.80;43.13
65013;BME280;51715;39.432;-77.518;2023-02-23T04:57:22;99011.59;;;10.79;42.35
65013;BME280;51715;39.432;-77.518;2023-02-23T04:59:49;99007.96;;;11.05;41.60
65013;BME280;51715;39.432;-77.518;2023-02-23T05:03:59;99024.52;;;10.68;41.33
65013;BME280;51715;39.432;-77.518;2023-02-23T05:06:28;99002.22;;;11.19;40.48
65013;BME280;51715;39.432;-77.518;2023-02-23T05:08:56;99011.72;;;10.96;41.52
65013;BME280;51715;39.432;-77.518;2023-02-23T05:11:24;99004.98;;;11.98;39.75
65013;BME280;51715;39.432;-77.518;2023-02-23T05:13:52;99004.11;;;12.10;39.32
65013;BME280;51715;39.432;-77.518;2023-02-23T05:16:21;98994.30;;;11.38;40.67
65013;BME280;51715;39.432;-77.518;2023-02-23T05:18:49;98975.80;;;11.33;41.25
65013;BME280;51715;39.432;-77.518;2023-02-23T05:21:18;98958.94;;;11.71;40.77
65013;BME280;51715;39.432;-77.518;2023-02-23T05:23:46;98966.67;;;11.48;40.79
65013;BME280;51715;39.432;-77.518;2023-02-23T05:26:16;98954.44;;;11.68;40.03
65013;BME280;51715;39.432;-77.518;2023-02-23T05:28:45;98950.96;;;11.80;40.16
65013;BME280;51715;39.432;-77.518;2023-02-23T05:31:13;98942.04;;;11.32;40.43
65013;BME280;51715;39.432;-77.518;2023-02-23T05:33:42;98952.94;;;10.74;42.13
65013;BME280;51715;39.432;-77.518;2023-02-23T05:36:12;98941.19;;;11.17;41.46
65013;BME280;51715;39.432;-77.518;2023-02-23T05:38:40;98937.98;;;11.45;40.88
65013;BME280;51715;39.432;-77.518;2023-02-23T05:41:10;98946.21;;;11.54;41.52
65013;BME280;51715;39.432;-77.518;2023-02-23T05:43:40;98961.17;;;9.92;43.74
65013;BME280;51715;39.432;-77.518;2023-02-23T05:46:10;98967.24;;;11.23;41.42
65013;BME280;51715;39.432;-77.518;2023-02-23T05:48:39;98978.84;;;11.37;40.99
65013;BME280;51715;39.432;-77.518;2023-02-23T05:51:11;98974.78;;;11.40;40.40
65013;BME280;51715;39.432;-77.518;2023-02-23T05:53:40;98976.70;;;11.26;41.26
65013;BME280;51715;39.432;-77.518;2023-02-23T05:56:12;98970.01;;;10.94;41.84
65013;BME280;51715;39.432;-77.518;2023-02-23T05:58:40;98956.25;;;9.67;44.42
65013;BME280;51715;39.432;-77.518;2023-02-23T06:01:08;98933.03;;;9.99;44.18
65013;BME280;51715;39.432;-77.518;2023-02-23T06:03:37;98922.84;;;10.82;42.00
65013;BME280;51715;39.432;-77.518;2023-02-23T06:06:06;98933.07;;;11.18;41.33
65013;BME280;51715;39.432;-77.518;2023-02-23T06:08:33;98935.95;;;11.62;40.48
65013;BME280;51715;39.432;-77.518;2023-02-23T06:11:02;98926.21;;;11.30;40.72
65013;BME280;51715;39.432;-77.518;2023-02-23T06:13:31;98902.01;;;11.52;40.22
65013;BME280;51715;39.432;-77.518;2023-02-23T06:16:00;98886.12;;;11.31;40.43
65013;BME280;51715;39.432;-77.518;2023-02-23T06:18:28;98880.85;;;10.22;42.50
65013;BME280;51715;39.432;-77.518;2023-02-23T06:20:59;98876.81;;;10.77;41.17
65013;BME280;51715;39.432;-77.518;2023-02-23T06:23:28;98894.16;;;10.53;42.12
65013;BME280;51715;39.432;-77.518;2023-02-23T06:25:56;98873.34;;;10.25;41.82
65013;BME280;51715;39.432;-77.518;2023-02-23T06:28:25;98896.06;;;10.38;42.62
65013;BME280;51715;39.432;-77.518;2023-02-23T06:30:54;98882.51;;;10.56;41.66
65013;BME280;51715;39.432;-77.518;2023-02-23T06:33:23;98895.70;;;9.42;44.02
65013;BME280;51715;39.432;-77.518;2023-02-23T06:35:51;98882.21;;;9.09;45.40
65013;BME280;51715;39.432;-77.518;2023-02-23T06:38:20;98877.80;;;8.36;46.22
65013;BME280;51715;39.432;-77.518;2023-02-23T06:40:49;98871.96;;;8.26;46.85
65013;BME280;51715;39.432;-77.518;2023-02-23T06:43:18;98865.38;;;8.94;45.72
65013;BME280;51715;39.432;-77.518;2023-02-23T06:45:46;98874.70;;;8.25;46.66
65013;BME280;51715;39.432;-77.518;2023-02-23T06:48:15;98877.65;;;9.09;44.79
65013;BME280;51715;39.432;-77.518;2023-02-23T06:50:43;98878.63;;;9.54;43.48
65013;BME280;51715;39.432;-77.518;2023-02-23T06:53:11;98875.28;;;9.40;43.89
65013;BME280;51715;39.432;-77.518;2023-02-23T06:55:39;98867.47;;;9.76;43.27
65013;BME280;51715;39.432;-77.518;2023-02-23T06:58:07;98867.50;;;9.88;42.68
65013;BME280;51715;39.432;-77.518;2023-02-23T07:00:36;98864.65;;;9.78;42.23
65013;BME280;51715;39.432;-77.518;2023-02-23T07:03:04;98867.37;;;10.70;41.14
65013;BME280;51715;39.432;-77.518;2023-02-23T07:05:33;98865.93;;;9.42;43.60
65013;BME280;51715;39.432;-77.518;2023-02-23T07:08:01;98855.71;;;9.33;43.61
65013;BME280;51715;39.432;-77.518;2023-02-23T07:10:29;98858.75;;;8.56;44.99
65013;BME280;51715;39.432;-77.518;2023-02-23T07:12:57;98864.08;;;8.50;45.39
65013;BME280;51715;39.432;-77.518;2023-02-23T07:15:25;98862.34;;;9.51;43.47
65013;BME280;51715;39.432;-77.518;2023-02-23T07:17:53;98853.67;;;9.14;43.55
65013;BME280;51715;39.432;-77.518;2023-02-23T07:20:21;98837.50;;;9.43;43.53
65013;BME280;51715;39.432;-77.518;2023-02-23T07:22:49;98832.76;;;9.61;42.90
65013;BME280;51715;39.432;-77.518;2023-02-23T07:25:18;98819.71;;;10.23;42.18
65013;BME280;51715;39.432;-77.518;2023-02-23T07:27:46;98818.15;;;10.25;41.43
65013;BME280;51715;39.432;-77.518;2023-02-23T07:30:15;98819.03;;;9.47;43.34
65013;BME280;51715;39.432;-77.518;2023-02-23T07:32:42;98828.59;;;9.60;43.48
65013;BME280;51715;39.432;-77.518;2023-02-23T07:35:11;98818.37;;;10.51;41.94
65013;BME280;51715;39.432;-77.518;2023-02-23T07:37:38;98817.44;;;10.29;42.02
65013;BME280;51715;39.432;-77.518;2023-02-23T07:40:08;98802.38;;;10.08;42.41
65013;BME280;51715;39.432;-77.518;2023-02-23T07:42:35;98808.40;;;10.44;42.02
65013;BME280;51715;39.432;-77.518;2023-02-23T07:45:05;98807.83;;;10.44;41.02
65013;BME280;51715;39.432;-77.518;2023-02-23T07:47:33;98810.86;;;10.60;41.32
65013;BME280;51715;39.432;-77.518;2023-02-23T07:50:02;98802.74;;;10.21;41.20
65013;BME280;51715;39.432;-77.518;2023-02-23T07:52:31;98798.53;;;11.00;40.62
65013;BME280;51715;39.432;-77.518;2023-02-23T07:54:59;98801.27;;;10.51;40.58
65013;BME280;51715;39.432;-77.518;2023-02-23T07:57:28;98795.08;;;10.95;39.84
65013;BME280;51715;39.432;-77.518;2023-02-23T08:00:08;98798.09;;;10.40;40.52
65013;BME280;51715;39.432;-77.518;2023-02-23T08:02:38;98785.47;;;10.49;40.27
65013;BME280;51715;39.432;-77.518;2023-02-23T08:05:06;98783.89;;;9.87;41.48
65013;BME280;51715;39.432;-77.518;2023-02-23T08:07:35;98779.42;;;9.90;41.94
65013;BME280;51715;39.432;-77.518;2023-02-23T08:10:03;98791.13;;;9.29;43.60
65013;BME280;51715;39.432;-77.518;2023-02-23T08:12:32;98787.62;;;9.80;42.68
65013;BME280;51715;39.432;-77.518;2023-02-23T08:15:00;98791.46;;;10.01;42.18
65013;BME280;51715;39.432;-77.518;2023-02-23T08:17:28;98776.37;;;10.07;41.19
65013;BME280;51715;39.432;-77.518;2023-02-23T08:19:57;98762.57;;;9.01;44.03
65013;BME280;51715;39.432;-77.518;2023-02-23T08:22:25;98761.29;;;9.87;42.98
65013;BME280;51715;39.432;-77.518;2023-02-23T08:24:54;98758.58;;;9.82;42.11
65013;BME280;51715;39.432;-77.518;2023-02-23T08:27:23;98767.32;;;10.28;41.69
65013;BME280;51715;39.432;-77.518;2023-02-23T08:29:56;98783.26;;;9.42;42.78
65013;BME280;51715;39.432;-77.518;2023-02-23T08:32:25;98773.08;;;9.47;42.95
65013;BME280;51715;39.432;-77.518;2023-02-23T08:34:54;98790.21;;;10.26;41.74
65013;BME280;51715;39.432;-77.518;2023-02-23T08:37:22;98775.69;;;10.13;41.69
65013;BME280;51715;39.432;-77.518;2023-02-23T08:39:49;98770.72;;;10.77;41.32
65013;BME280;51715;39.432;-77.518;2023-02-23T08:42:18;98780.85;;;10.78;40.66
65013;BME280;51715;39.432;-77.518;2023-02-23T08:44:46;98784.48;;;10.92;40.55
65013;BME280;51715;39.432;-77.518;2023-02-23T08:47:14;98785.84;;;11.27;39.96
65013;BME280;51715;39.432;-77.518;2023-02-23T08:49:43;98796.17;;;11.38;39.75
65013;BME280;51715;39.432;-77.518;2023-02-23T08:52:11;98820.22;;;11.53;39.50
65013;BME280;51715;39.432;-77.518;2023-02-23T08:54:39;98820.94;;;11.88;38.86
65013;BME280;51715;39.432;-77.518;2023-02-23T08:57:07;98824.05;;;11.64;38.59
65013;BME280;51715;39.432;-77.518;2023-02-23T08:59:35;98817.37;;;11.79;39.21
65013;BME280;51715;39.432;-77.518;2023-02-23T09:02:04;98831.18;;;12.01;38.94
65013;BME280;51715;39.432;-77.518;2023-02-23T09:04:33;98844.96;;;11.34;38.74
65013;BME280;51715;39.432;-77.518;2023-02-23T09:07:04;98835.62;;;11.71;38.49
65013;BME280;51715;39.432;-77.518;2023-02-23T09:09:32;98832.84;;;12.19;38.15
65013;BME280;51715;39.432;-77.518;2023-02-23T09:12:00;98836.24;;;11.84;38.59
65013;BME280;51715;39.432;-77.518;2023-02-23T09:14:28;98849.54;;;11.25;40.21
65013;BME280;51715;39.432;-77.518;2023-02-23T09:17:09;98837.52;;;11.45;39.43
65013;BME280;51715;39.432;-77.518;2023-02-23T09:19:37;98849.04;;;11.52;39.15
65013;BME280;51715;39.432;-77.518;2023-02-23T09:22:05;98846.18;;;11.44;39.33
65013;BME280;51715;39.432;-77.518;2023-02-23T09:24:33;98871.45;;;12.01;38.83
65013;BME280;51715;39.432;-77.518;2023-02-23T09:27:01;98866.67;;;11.51;39.70
65013;BME280;51715;39.432;-77.518;2023-02-23T09:29:30;98873.80;;;11.38;39.29
65013;BME280;51715;39.432;-77.518;2023-02-23T09:31:58;98887.92;;;11.17;40.49
65013;BME280;51715;39.432;-77.518;2023-02-23T09:34:26;98871.60;;;11.23;40.31
65013;BME280;51715;39.432;-77.518;2023-02-23T09:36:55;98864.78;;;11.29;39.88
65013;BME280;51715;39.432;-77.518;2023-02-23T09:39:23;98850.89;;;11.65;39.29
65013;BME280;51715;39.432;-77.518;2023-02-23T09:42:16;98850.10;;;11.44;39.17
65013;BME280;51715;39.432;-77.518;2023-02-23T09:44:56;98862.55;;;11.54;39.08
65013;BME280;51715;39.432;-77.518;2023-02-23T09:47:32;98845.83;;;10.79;41.15
65013;BME280;51715;39.432;-77.518;2023-02-23T09:50:11;98842.32;;;11.24;40.29
65013;BME280;51715;39.432;-77.518;2023-02-23T09:52:44;98863.43;;;10.76;41.31
65013;BME280;51715;39.432;-77.518;2023-02-23T09:55:15;98864.75;;;10.60;41.14
65013;BME280;51715;39.432;-77.518;2023-02-23T09:57:46;98849.66;;;10.83;41.03
65013;BME280;51715;39.432;-77.518;2023-02-23T10:00:22;98836.53;;;11.37;40.33
65013;BME280;51715;39.432;-77.518;2023-02-23T10:03:16;98833.67;;;11.50;40.04
65013;BME280;51715;39.432;-77.518;2023-02-23T10:05:50;98825.71;;;11.26;40.56
65013;BME280;51715;39.432;-77.518;2023-02-23T10:08:33;98839.38;;;11.75;39.75
65013;BME280;51715;39.432;-77.518;2023-02-23T10:11:14;98864.21;;;11.90;39.14
65013;BME280;51715;39.432;-77.518;2023-02-23T10:13:54;98849.88;;;11.81;39.14
65013;BME280;51715;39.432;-77.518;2023-02-23T10:16:32;98852.55;;;11.60;40.03
65013;BME280;51715;39.432;-77.518;2023-02-23T10:19:09;98875.91;;;11.79;39.78
65013;BME280;51715;39.432;-77.518;2023-02-23T10:21:45;98882.61;;;12.27;39.81
65013;BME280;51715;39.432;-77.518;2023-02-23T10:24:18;98872.35;;;11.66;40.65
65013;BME280;51715;39.432;-77.518;2023-02-23T10:26:51;98905.54;;;11.92;40.43
65013;BME280;51715;39.432;-77.518;2023-02-23T10:29:25;98898.70;;;12.09;40.29
65013;BME280;51715;39.432;-77.518;2023-02-23T10:31:56;98907.78;;;12.15;40.80
65013;BME280;51715;39.432;-77.518;2023-02-23T10:34:27;98901.64;;;12.25;40.86
65013;BME280;51715;39.432;-77.518;2023-02-23T10:36:59;98903.70;;;12.18;40.58
65013;BME280;51715;39.432;-77.518;2023-02-23T10:39:29;98898.02;;;12.41;40.60
65013;BME280;51715;39.432;-77.518;2023-02-23T10:42:00;98882.32;;;12.34;40.78
65013;BME280;51715;39.432;-77.518;2023-02-23T10:44:30;98888.06;;;12.27;40.58
65013;BME280;51715;39.432;-77.518;2023-02-23T10:47:01;98891.21;;;12.04;40.58
65013;BME280;51715;39.432;-77.518;2023-02-23T10:49:38;98914.68;;;12.48;40.13
65013;BME280;51715;39.432;-77.518;2023-02-23T10:52:10;98929.42;;;11.54;40.66
65013;BME280;51715;39.432;-77.518;2023-02-23T10:54:43;98923.96;;;11.85;40.48
65013;BME280;51715;39.432;-77.518;2023-02-23T10:57:22;98911.14;;;12.11;39.98
65013;BME280;51715;39.432;-77.518;2023-02-23T11:00:01;98917.69;;;12.14;39.59
65013;BME280;51715;39.432;-77.518;2023-02-23T11:02:31;98910.23;;;11.94;39.39
65013;BME280;51715;39.432;-77.518;2023-02-23T11:05:02;98912.79;;;11.93;39.34
65013;BME280;51715;39.432;-77.518;2023-02-23T11:07:32;98915.84;;;11.94;39.20
65013;BME280;51715;39.432;-77.518;2023-02-23T11:10:24;98917.69;;;12.18;39.22
65013;BME280;51715;39.432;-77.518;2023-02-23T11:12:53;98916.32;;;12.19;39.54
65013;BME280;51715;39.432;-77.518;2023-02-23T11:15:28;98920.11;;;11.74;39.37
65013;BME280;51715;39.432;-77.518;2023-02-23T11:17:57;98937.27;;;11.98;39.30
65013;BME280;51715;39.432;-77.518;2023-02-23T11:20:30;98939.84;;;11.87;39.57
65013;BME280;51715;39.432;-77.518;2023-02-23T11:23:00;98940.06;;;11.91;39.54
65013;BME280;51715;39.432;-77.518;2023-02-23T11:25:30;98944.42;;;11.69;39.54
65013;BME280;51715;39.432;-77.518;2023-02-23T11:27:59;98941.69;;;11.47;40.49
65013;BME280;51715;39.432;-77.518;2023-02-23T11:30:32;98947.65;;;11.56;39.95
65013;BME280;51715;39.432;-77.518;2023-02-23T11:33:03;98945.05;;;11.56;39.97
65013;BME280;51715;39.432;-77.518;2023-02-23T11:35:32;98976.11;;;11.63;40.01
65013;BME280;51715;39.432;-77.518;2023-02-23T11:38:14;98981.27;;;11.01;41.20
65013;BME280;51715;39.432;-77.518;2023-02-23T11:40:58;98977.13;;;10.85;41.38
65013;BME280;51715;39.432;-77.518;2023-02-23T11:43:27;98974.05;;;11.50;41.08
65013;BME280;51715;39.432;-77.518;2023-02-23T11:45:57;98967.15;;;11.14;40.29
65013;BME280;51715;39.432;-77.518;2023-02-23T11:48:30;98982.83;;;11.06;40.47
65013;BME280;51715;39.432;-77.518;2023-02-23T11:51:01;98995.20;;;11.02;40.56
65013;BME280;51715;39.432;-77.518;2023-02-23T11:53:34;99003.40;;;10.61;41.32
65013;BME280;51715;39.432;-77.518;2023-02-23T11:56:05;98995.81;;;10.83;40.73
65013;BME280;51715;39.432;-77.518;2023-02-23T11:58:37;99016.95;;;10.88;40.70
65013;BME280;51715;39.432;-77.518;2023-02-23T12:01:08;99004.71;;;10.73;41.66
65013;BME280;51715;39.432;-77.518;2023-02-23T12:03:44;99016.17;;;10.58;41.16
65013;BME280;51715;39.432;-77.518;2023-02-23T12:06:25;99021.90;;;10.39;41.49
65013;BME280;51715;39.432;-77.518;2023-02-23T12:08:56;99019.38;;;10.63;41.27
65013;BME280;51715;39.432;-77.518;2023-02-23T12:11:30;99029.73;;;10.81;40.93
65013;BME280;51715;39.432;-77.518;2023-02-23T12:14:04;99039.86;;;10.88;40.90
65013;BME280;51715;39.432;-77.518;2023-02-23T12:16:39;99045.46;;;10.52;41.62
65013;BME280;51715;39.432;-77.518;2023-02-23T12:19:20;99036.64;;;10.48;41.79
65013;BME280;51715;39.432;-77.518;2023-02-23T12:21:58;99048.47;;;10.46;41.62
65013;BME280;51715;39.432;-77.518;2023-02-23T12:24:41;99050.58;;;10.91;41.74
65013;BME280;51715;39.432;-77.518;2023-02-23T12:27:14;99059.51;;;10.65;41.45
65013;BME280;51715;39.432;-77.518;2023-02-23T12:29:57;99071.99;;;10.03;43.38
65013;BME280;51715;39.432;-77.518;2023-02-23T12:32:33;99072.35;;;10.05;42.66
65013;BME280;51715;39.432;-77.518;2023-02-23T12:35:12;99073.25;;;10.40;41.86
65013;BME280;51715;39.432;-77.518;2023-02-23T12:37:44;99073.38;;;10.73;41.84
65013;BME280;51715;39.432;-77.518;2023-02-23T12:40:16;99084.09;;;10.65;41.47
65013;BME280;51715;39.432;-77.518;2023-02-23T12:42:53;99085.87;;;10.70;41.43
65013;BME280;51715;39.432;-77.518;2023-02-23T12:45:31;99076.47;;;10.67;41.71
65013;BME280;51715;39.432;-77.518;2023-02-23T12:48:07;99087.73;;;10.82;42.50
65013;BME280;51715;39.432;-77.518;2023-02-23T12:50:43;99093.83;;;10.78;42.47
65013;BME280;51715;39.432;-77.518;2023-02-23T12:53:20;99096.28;;;10.55;42.79
65013;BME280;51715;39.432;-77.518;2023-02-23T12:56:02;99101.15;;;10.78;42.66
65013;BME280;51715;39.432;-77.518;2023-02-23T12:58:43;99110.63;;;10.97;42.30
65013;BME280;51715;39.432;-77.518;2023-02-23T13:01:17;99106.22;;;11.11;41.92
65013;BME280;51715;39.432;-77.518;2023-02-23T13:04:24;99108.66;;;11.60;41.31
65013;BME280;51715;39.432;-77.518;2023-02-23T13:06:59;99115.61;;;11.83;40.71